sensor_id;sensor_type;location;lat;lon;timestamp;P1;durP1;ratioP1;P2;durP2;ratioP2
72684;SDS011;61365;52.162;4.500;2022-09-09T00:04:54;10.55;;;4.60;;
72684;SDS011;61365;52.162;4.500;2022-09-09T00:07:37;10.40;;;4.82;;
72684;SDS011;61365;52.162;4.500;2022-09-09T00:10:29;9.75;;;4.97;;
72684;SDS011;61365;52.162;4.500;2022-09-09T00:27:29;11.25;;;5.32;;
72684;SDS011;61365;52.162;4.500;2022-09-09T00:30:22;12.75;;;6.00;;
72684;SDS011;61365;52.162;4.500;2022-09-09T00:32:55;11.38;;;5.28;;
72684;SDS011;61365;52.162;4.500;2022-09-09T00:35:36;13.45;;;6.00;;
72684;SDS011;61365;52.162;4.500;2022-09-09T00:38:11;12.70;;;6.35;;
72684;SDS011;61365;52.162;4.500;2022-09-09T00:43:38;10.95;;;6.13;;
72684;SDS011;61365;52.162;4.500;2022-09-09T00:52:12;12.00;;;6.07;;
72684;SDS011;61365;52.162;4.500;2022-09-09T00:55:01;13.43;;;7.13;;
72684;SDS011;61365;52.162;4.500;2022-09-09T00:58:07;15.45;;;7.35;;
72684;SDS011;61365;52.162;4.500;2022-09-09T01:00:38;13.77;;;7.93;;
72684;SDS011;61365;52.162;4.500;2022-09-09T01:03:36;15.38;;;8.00;;
72684;SDS011;61365;52.162;4.500;2022-09-09T01:06:32;14.20;;;7.65;;
72684;SDS011;61365;52.162;4.500;2022-09-09T01:17:45;12.90;;;7.57;;
72684;SDS011;61365;52.162;4.500;2022-09-09T01:20:03;15.68;;;6.93;;
72684;SDS011;61365;52.162;4.500;2022-09-09T01:26:09;17.13;;;8.18;;
72684;SDS011;61365;52.162;4.500;2022-09-09T01:28:46;18.33;;;9.13;;
72684;SDS011;61365;52.162;4.500;2022-09-09T01:31:28;17.63;;;9.45;;
72684;SDS011;61365;52.162;4.500;2022-09-09T01:34:11;14.32;;;8.68;;
72684;SDS011;61365;52.162;4.500;2022-09-09T01:36:43;18.83;;;10.55;;
72684;SDS011;61365;52.162;4.500;2022-09-09T01:39:34;18.35;;;10.18;;
72684;SDS011;61365;52.162;4.500;2022-09-09T01:42:05;18.80;;;8.80;;
72684;SDS011;61365;52.162;4.500;2022-09-09T01:44:34;14.90;;;10.23;;
72684;SDS011;61365;52.162;4.500;2022-09-09T01:47:04;20.30;;;10.55;;
72684;SDS011;61365;52.162;4.500;2022-09-09T01:49:31;13.00;;;8.90;;
72684;SDS011;61365;52.162;4.500;2022-09-09T01:52:00;16.88;;;10.02;;
72684;SDS011;61365;52.162;4.500;2022-09-09T01:54:28;19.42;;;10.52;;
72684;SDS011;61365;52.162;4.500;2022-09-09T01:59:39;21.67;;;12.52;;
72684;SDS011;61365;52.162;4.500;2022-09-09T02:02:30;17.38;;;11.25;;
72684;SDS011;61365;52.162;4.500;2022-09-09T02:08:48;22.00;;;11.93;;
72684;SDS011;61365;52.162;4.500;2022-09-09T02:11:18;22.27;;;11.85;;
72684;SDS011;61365;52.162;4.500;2022-09-09T02:13:49;20.60;;;12.10;;
72684;SDS011;61365;52.162;4.500;2022-09-09T02:16:39;19.95;;;11.70;;
72684;SDS011;61365;52.162;4.500;2022-09-09T02:19:32;21.92;;;11.18;;
72684;SDS011;61365;52.162;4.500;2022-09-09T02:22:08;20.75;;;11.25;;
72684;SDS011;61365;52.162;4.500;2022-09-09T02:24:36;19.77;;;13.32;;
72684;SDS011;61365;52.162;4.500;2022-09-09T02:27:06;18.20;;;11.75;;
72684;SDS011;61365;52.162;4.500;2022-09-09T02:29:37;20.10;;;11.43;;
72684;SDS011;61365;52.162;4.500;2022-09-09T02:32:14;20.17;;;10.85;;
72684;SDS011;61365;52.162;4.500;2022-09-09T02:34:49;16.42;;;9.50;;
72684;SDS011;61365;52.162;4.500;2022-09-09T02:37:23;17.77;;;10.38;;
72684;SDS011;61365;52.162;4.500;2022-09-09T02:39:57;17.25;;;10.10;;
72684;SDS011;61365;52.162;4.500;2022-09-09T02:42:23;14.90;;;9.40;;
72684;SDS011;61365;52.162;4.500;2022-09-09T02:44:50;13.55;;;9.05;;
72684;SDS011;61365;52.162;4.500;2022-09-09T02:47:19;17.05;;;8.13;;
72684;SDS011;61365;52.162;4.500;2022-09-09T02:50:11;15.27;;;9.00;;
72684;SDS011;61365;52.162;4.500;2022-09-09T02:58:29;14.52;;;7.28;;
72684;SDS011;61365;52.162;4.500;2022-09-09T03:00:56;14.98;;;7.38;;
72684;SDS011;61365;52.162;4.500;2022-09-09T03:03:24;16.02;;;7.25;;
72684;SDS011;61365;52.162;4.500;2022-09-09T03:05:50;13.32;;;6.85;;
72684;SDS011;61365;52.162;4.500;2022-09-09T03:08:17;13.60;;;6.70;;
72684;SDS011;61365;52.162;4.500;2022-09-09T03:10:43;16.23;;;6.68;;
72684;SDS011;61365;52.162;4.500;2022-09-09T03:13:10;11.68;;;6.18;;
72684;SDS011;61365;52.162;4.500;2022-09-09T03:15:38;11.80;;;6.40;;
72684;SDS011;61365;52.162;4.500;2022-09-09T03:18:04;10.43;;;5.82;;
72684;SDS011;61365;52.162;4.500;2022-09-09T03:20:31;15.57;;;6.20;;
72684;SDS011;61365;52.162;4.500;2022-09-09T03:22:58;12.50;;;5.78;;
72684;SDS011;61365;52.162;4.500;2022-09-09T03:25:26;9.63;;;5.22;;
72684;SDS011;61365;52.162;4.500;2022-09-09T03:27:54;11.48;;;5.57;;
72684;SDS011;61365;52.162;4.500;2022-09-09T03:30:22;14.45;;;6.10;;
72684;SDS011;61365;52.162;4.500;2022-09-09T03:32:51;12.85;;;5.90;;
72684;SDS011;61365;52.162;4.500;2022-09-09T03:35:18;10.52;;;5.28;;
72684;SDS011;61365;52.162;4.500;2022-09-09T03:37:45;8.32;;;4.88;;
72684;SDS011;61365;52.162;4.500;2022-09-09T03:40:11;13.75;;;4.95;;
72684;SDS011;61365;52.162;4.500;2022-09-09T03:42:38;17.65;;;5.68;;
72684;SDS011;61365;52.162;4.500;2022-09-09T03:45:08;11.00;;;4.35;;
72684;SDS011;61365;52.162;4.500;2022-09-09T03:47:37;9.70;;;4.63;;
72684;SDS011;61365;52.162;4.500;2022-09-09T03:50:04;14.63;;;4.72;;
72684;SDS011;61365;52.162;4.500;2022-09-09T03:52:35;9.68;;;4.43;;
72684;SDS011;61365;52.162;4.500;2022-09-09T03:55:03;10.73;;;4.68;;
72684;SDS011;61365;52.162;4.500;2022-09-09T03:57:31;10.68;;;4.50;;
72684;SDS011;61365;52.162;4.500;2022-09-09T04:00:04;14.43;;;5.28;;
72684;SDS011;61365;52.162;4.500;2022-09-09T04:02:32;10.63;;;5.20;;
72684;SDS011;61365;52.162;4.500;2022-09-09T04:04:59;10.25;;;5.40;;
72684;SDS011;61365;52.162;4.500;2022-09-09T04:07:25;14.23;;;6.00;;
72684;SDS011;61365;52.162;4.500;2022-09-09T04:09:53;15.25;;;6.13;;
72684;SDS011;61365;52.162;4.500;2022-09-09T04:12:20;13.57;;;5.68;;
72684;SDS011;61365;52.162;4.500;2022-09-09T04:14:46;11.85;;;5.40;;
72684;SDS011;61365;52.162;4.500;2022-09-09T04:17:13;12.55;;;5.95;;
72684;SDS011;61365;52.162;4.500;2022-09-09T04:19:39;11.32;;;5.75;;
72684;SDS011;61365;52.162;4.500;2022-09-09T04:22:05;8.40;;;4.93;;
72684;SDS011;61365;52.162;4.500;2022-09-09T04:24:31;13.35;;;5.18;;
72684;SDS011;61365;52.162;4.500;2022-09-09T04:26:58;12.85;;;5.28;;
72684;SDS011;61365;52.162;4.500;2022-09-09T04:29:24;11.60;;;5.40;;
72684;SDS011;61365;52.162;4.500;2022-09-09T04:31:50;10.07;;;5.30;;
72684;SDS011;61365;52.162;4.500;2022-09-09T04:34:17;11.70;;;5.22;;
72684;SDS011;61365;52.162;4.500;2022-09-09T04:36:43;13.68;;;4.25;;
72684;SDS011;61365;52.162;4.500;2022-09-09T04:39:09;10.77;;;4.68;;
72684;SDS011;61365;52.162;4.500;2022-09-09T04:41:35;14.13;;;5.03;;
72684;SDS011;61365;52.162;4.500;2022-09-09T04:44:03;10.00;;;4.82;;
72684;SDS011;61365;52.162;4.500;2022-09-09T04:46:29;9.93;;;4.60;;
72684;SDS011;61365;52.162;4.500;2022-09-09T04:48:56;11.80;;;5.30;;
72684;SDS011;61365;52.162;4.500;2022-09-09T04:51:22;13.38;;;4.80;;
72684;SDS011;61365;52.162;4.500;2022-09-09T04:53:48;12.13;;;4.47;;
72684;SDS011;61365;52.162;4.500;2022-09-09T04:56:16;10.98;;;5.03;;
72684;SDS011;61365;52.162;4.500;2022-09-09T04:58:44;13.20;;;4.47;;
72684;SDS011;61365;52.162;4.500;2022-09-09T05:01:15;12.70;;;3.78;;
72684;SDS011;61365;52.162;4.500;2022-09-09T05:03:44;12.30;;;4.82;;
72684;SDS011;61365;52.162;4.500;2022-09-09T05:06:18;9.55;;;3.97;;
72684;SDS011;61365;52.162;4.500;2022-09-09T05:08:47;10.52;;;4.13;;
72684;SDS011;61365;52.162;4.500;2022-09-09T05:11:31;11.80;;;3.97;;
72684;SDS011;61365;52.162;4.500;2022-09-09T05:14:02;13.20;;;3.90;;
72684;SDS011;61365;52.162;4.500;2022-09-09T05:16:29;9.68;;;3.95;;
72684;SDS011;61365;52.162;4.500;2022-09-09T05:18:56;9.25;;;3.63;;
72684;SDS011;61365;52.162;4.500;2022-09-09T05:21:23;11.10;;;3.95;;
72684;SDS011;61365;52.162;4.500;2022-09-09T05:23:54;8.52;;;3.70;;
72684;SDS011;61365;52.162;4.500;2022-09-09T05:26:21;12.23;;;3.58;;
72684;SDS011;61365;52.162;4.500;2022-09-09T05:28:48;12.38;;;3.47;;
72684;SDS011;61365;52.162;4.500;2022-09-09T05:31:15;9.32;;;3.20;;
72684;SDS011;61365;52.162;4.500;2022-09-09T05:33:45;8.60;;;3.20;;
72684;SDS011;61365;52.162;4.500;2022-09-09T05:36:16;13.20;;;3.78;;
72684;SDS011;61365;52.162;4.500;2022-09-09T05:38:45;11.77;;;3.65;;
72684;SDS011;61365;52.162;4.500;2022-09-09T05:41:11;10.50;;;3.45;;
72684;SDS011;61365;52.162;4.500;2022-09-09T05:43:41;13.32;;;3.20;;
72684;SDS011;61365;52.162;4.500;2022-09-09T05:46:13;11.00;;;3.20;;
72684;SDS011;61365;52.162;4.500;2022-09-09T05:48:43;8.30;;;3.67;;
72684;SDS011;61365;52.162;4.500;2022-09-09T05:51:13;9.23;;;3.38;;
72684;SDS011;61365;52.162;4.500;2022-09-09T05:53:43;8.30;;;2.95;;
72684;SDS011;61365;52.162;4.500;2022-09-09T05:56:12;12.50;;;3.55;;
72684;SDS011;61365;52.162;4.500;2022-09-09T05:58:45;18.65;;;4.15;;
72684;SDS011;61365;52.162;4.500;2022-09-09T06:01:22;9.38;;;3.20;;
72684;SDS011;61365;52.162;4.500;2022-09-09T06:03:54;10.07;;;3.00;;
72684;SDS011;61365;52.162;4.500;2022-09-09T06:06:25;12.43;;;3.60;;
72684;SDS011;61365;52.162;4.500;2022-09-09T06:08:57;10.65;;;2.58;;
72684;SDS011;61365;52.162;4.500;2022-09-09T06:11:25;7.07;;;2.90;;
72684;SDS011;61365;52.162;4.500;2022-09-09T06:13:59;14.40;;;3.40;;
72684;SDS011;61365;52.162;4.500;2022-09-09T06:16:26;9.95;;;3.08;;
72684;SDS011;61365;52.162;4.500;2022-09-09T06:18:55;12.80;;;3.78;;
72684;SDS011;61365;52.162;4.500;2022-09-09T06:21:24;10.93;;;2.95;;
72684;SDS011;61365;52.162;4.500;2022-09-09T06:23:54;9.52;;;3.40;;
72684;SDS011;61365;52.162;4.500;2022-09-09T06:26:21;7.28;;;2.30;;
72684;SDS011;61365;52.162;4.500;2022-09-09T06:28:51;11.70;;;3.03;;
72684;SDS011;61365;52.162;4.500;2022-09-09T06:31:20;10.85;;;3.13;;
72684;SDS011;61365;52.162;4.500;2022-09-09T06:33:50;10.90;;;2.78;;
72684;SDS011;61365;52.162;4.500;2022-09-09T06:36:19;7.22;;;2.75;;
72684;SDS011;61365;52.162;4.500;2022-09-09T06:38:55;10.93;;;2.58;;
72684;SDS011;61365;52.162;4.500;2022-09-09T06:41:22;14.82;;;3.10;;
72684;SDS011;61365;52.162;4.500;2022-09-09T06:43:52;14.82;;;3.15;;
72684;SDS011;61365;52.162;4.500;2022-09-09T06:46:20;8.13;;;2.95;;
72684;SDS011;61365;52.162;4.500;2022-09-09T06:48:55;11.73;;;3.33;;
72684;SDS011;61365;52.162;4.500;2022-09-09T06:51:23;17.58;;;4.22;;
72684;SDS011;61365;52.162;4.500;2022-09-09T06:53:53;16.10;;;2.95;;
72684;SDS011;61365;52.162;4.500;2022-09-09T06:56:31;10.10;;;3.15;;
72684;SDS011;61365;52.162;4.500;2022-09-09T06:59:01;12.18;;;3.55;;
72684;SDS011;61365;52.162;4.500;2022-09-09T07:01:35;14.50;;;3.70;;
72684;SDS011;61365;52.162;4.500;2022-09-09T07:04:06;11.73;;;3.72;;
72684;SDS011;61365;52.162;4.500;2022-09-09T07:06:35;10.05;;;3.83;;
72684;SDS011;61365;52.162;4.500;2022-09-09T07:09:04;17.98;;;4.30;;
72684;SDS011;61365;52.162;4.500;2022-09-09T07:11:41;12.10;;;3.33;;
72684;SDS011;61365;52.162;4.500;2022-09-09T07:14:13;10.43;;;3.28;;
72684;SDS011;61365;52.162;4.500;2022-09-09T07:16:41;11.18;;;3.55;;
72684;SDS011;61365;52.162;4.500;2022-09-09T07:19:09;11.65;;;3.67;;
72684;SDS011;61365;52.162;4.500;2022-09-09T07:21:37;14.55;;;4.45;;
72684;SDS011;61365;52.162;4.500;2022-09-09T07:24:06;12.57;;;3.90;;
72684;SDS011;61365;52.162;4.500;2022-09-09T07:26:36;11.15;;;3.17;;
72684;SDS011;61365;52.162;4.500;2022-09-09T07:29:04;14.25;;;4.10;;
72684;SDS011;61365;52.162;4.500;2022-09-09T07:31:33;13.10;;;3.67;;
72684;SDS011;61365;52.162;4.500;2022-09-09T07:34:02;8.02;;;3.15;;
72684;SDS011;61365;52.162;4.500;2022-09-09T07:36:31;13.20;;;3.83;;
72684;SDS011;61365;52.162;4.500;2022-09-09T07:39:03;12.10;;;3.42;;
72684;SDS011;61365;52.162;4.500;2022-09-09T07:41:37;8.13;;;3.67;;
72684;SDS011;61365;52.162;4.500;2022-09-09T07:44:10;16.70;;;3.83;;
72684;SDS011;61365;52.162;4.500;2022-09-09T07:46:40;9.68;;;3.10;;
72684;SDS011;61365;52.162;4.500;2022-09-09T07:49:07;11.48;;;3.55;;
72684;SDS011;61365;52.162;4.500;2022-09-09T07:51:36;14.20;;;3.63;;
72684;SDS011;61365;52.162;4.500;2022-09-09T07:54:07;14.13;;;3.70;;
72684;SDS011;61365;52.162;4.500;2022-09-09T07:56:37;10.63;;;3.50;;
72684;SDS011;61365;52.162;4.500;2022-09-09T07:59:05;15.70;;;3.35;;
72684;SDS011;61365;52.162;4.500;2022-09-09T08:01:33;9.07;;;3.75;;
72684;SDS011;61365;52.162;4.500;2022-09-09T08:04:16;11.40;;;3.88;;
72684;SDS011;61365;52.162;4.500;2022-09-09T08:06:45;11.48;;;4.13;;
72684;SDS011;61365;52.162;4.500;2022-09-09T08:09:21;13.65;;;3.97;;
72684;SDS011;61365;52.162;4.500;2022-09-09T08:11:50;8.50;;;4.00;;
72684;SDS011;61365;52.162;4.500;2022-09-09T08:14:17;12.63;;;3.88;;
72684;SDS011;61365;52.162;4.500;2022-09-09T08:16:44;10.60;;;4.00;;
72684;SDS011;61365;52.162;4.500;2022-09-09T08:19:14;15.35;;;4.07;;
72684;SDS011;61365;52.162;4.500;2022-09-09T08:21:43;14.32;;;3.45;;
72684;SDS011;61365;52.162;4.500;2022-09-09T08:24:11;11.48;;;4.07;;
72684;SDS011;61365;52.162;4.500;2022-09-09T08:26:41;16.98;;;3.28;;
72684;SDS011;61365;52.162;4.500;2022-09-09T08:29:11;9.45;;;3.45;;
72684;SDS011;61365;52.162;4.500;2022-09-09T08:31:40;8.30;;;3.03;;
72684;SDS011;61365;52.162;4.500;2022-09-09T08:34:13;10.23;;;3.53;;
72684;SDS011;61365;52.162;4.500;2022-09-09T08:36:41;12.52;;;3.70;;
72684;SDS011;61365;52.162;4.500;2022-09-09T08:39:11;11.25;;;3.38;;
72684;SDS011;61365;52.162;4.500;2022-09-09T08:50:30;16.35;;;3.42;;
72684;SDS011;61365;52.162;4.500;2022-09-09T08:58:19;10.73;;;3.05;;
72684;SDS011;61365;52.162;4.500;2022-09-09T09:03:43;10.93;;;3.30;;
72684;SDS011;61365;52.162;4.500;2022-09-09T09:11:50;14.77;;;3.60;;
72684;SDS011;61365;52.162;4.500;2022-09-09T09:14:30;13.38;;;3.58;;
72684;SDS011;61365;52.162;4.500;2022-09-09T09:17:01;13.05;;;2.90;;
72684;SDS011;61365;52.162;4.500;2022-09-09T09:19:31;8.88;;;3.38;;
72684;SDS011;61365;52.162;4.500;2022-09-09T09:22:04;17.73;;;4.07;;
72684;SDS011;61365;52.162;4.500;2022-09-09T09:24:53;11.55;;;3.90;;
72684;SDS011;61365;52.162;4.500;2022-09-09T09:30:36;10.77;;;4.75;;
72684;SDS011;61365;52.162;4.500;2022-09-09T09:35:56;16.98;;;4.80;;
72684;SDS011;61365;52.162;4.500;2022-09-09T09:38:26;17.17;;;4.75;;
72684;SDS011;61365;52.162;4.500;2022-09-09T09:40:58;16.50;;;6.35;;
72684;SDS011;61365;52.162;4.500;2022-09-09T09:43:26;11.98;;;5.07;;
72684;SDS011;61365;52.162;4.500;2022-09-09T09:45:59;14.60;;;5.22;;
72684;SDS011;61365;52.162;4.500;2022-09-09T09:48:28;10.32;;;4.60;;
72684;SDS011;61365;52.162;4.500;2022-09-09T09:50:57;11.30;;;4.70;;
72684;SDS011;61365;52.162;4.500;2022-09-09T09:53:31;13.35;;;5.40;;
72684;SDS011;61365;52.162;4.500;2022-09-09T09:56:05;18.83;;;5.50;;
72684;SDS011;61365;52.162;4.500;2022-09-09T10:01:19;12.40;;;5.65;;
72684;SDS011;61365;52.162;4.500;2022-09-09T10:03:53;11.07;;;4.90;;
72684;SDS011;61365;52.162;4.500;2022-09-09T10:06:34;10.43;;;4.40;;
72684;SDS011;61365;52.162;4.500;2022-09-09T10:09:04;11.65;;;4.90;;
72684;SDS011;61365;52.162;4.500;2022-09-09T10:12:15;16.80;;;4.68;;
72684;SDS011;61365;52.162;4.500;2022-09-09T10:18:16;7.93;;;3.90;;
72684;SDS011;61365;52.162;4.500;2022-09-09T10:21:03;11.75;;;4.40;;
72684;SDS011;61365;52.162;4.500;2022-09-09T10:24:08;10.55;;;4.50;;
72684;SDS011;61365;52.162;4.500;2022-09-09T10:41:16;13.95;;;4.47;;
72684;SDS011;61365;52.162;4.500;2022-09-09T10:47:00;7.75;;;3.60;;
72684;SDS011;61365;52.162;4.500;2022-09-09T10:56:13;9.38;;;3.20;;
72684;SDS011;61365;52.162;4.500;2022-09-09T10:58:47;13.07;;;4.55;;
72684;SDS011;61365;52.162;4.500;2022-09-09T11:01:24;8.32;;;3.50;;
72684;SDS011;61365;52.162;4.500;2022-09-09T11:04:05;10.80;;;3.53;;
72684;SDS011;61365;52.162;4.500;2022-09-09T11:06:51;11.55;;;3.13;;
72684;SDS011;61365;52.162;4.500;2022-09-09T11:09:23;8.95;;;3.10;;
72684;SDS011;61365;52.162;4.500;2022-09-09T11:11:56;7.22;;;2.83;;
72684;SDS011;61365;52.162;4.500;2022-09-09T11:14:39;7.18;;;2.75;;
72684;SDS011;61365;52.162;4.500;2022-09-09T11:17:28;9.13;;;2.70;;
72684;SDS011;61365;52.162;4.500;2022-09-09T11:20:15;5.65;;;2.67;;
72684;SDS011;61365;52.162;4.500;2022-09-09T11:22:46;6.22;;;2.50;;
72684;SDS011;61365;52.162;4.500;2022-09-09T11:40:04;10.95;;;2.50;;
72684;SDS011;61365;52.162;4.500;2022-09-09T11:42:41;8.25;;;2.05;;
72684;SDS011;61365;52.162;4.500;2022-09-09T11:45:15;6.63;;;2.60;;
72684;SDS011;61365;52.162;4.500;2022-09-09T11:47:52;8.63;;;2.92;;
72684;SDS011;61365;52.162;4.500;2022-09-09T11:52:47;8.35;;;3.20;;
72684;SDS011;61365;52.162;4.500;2022-09-09T11:57:57;6.50;;;3.22;;
72684;SDS011;61365;52.162;4.500;2022-09-09T12:02:59;12.65;;;4.30;;
72684;SDS011;61365;52.162;4.500;2022-09-09T12:05:42;11.15;;;5.20;;
72684;SDS011;61365;52.162;4.500;2022-09-09T12:08:15;9.95;;;4.40;;
72684;SDS011;61365;52.162;4.500;2022-09-09T12:10:56;10.48;;;4.28;;
72684;SDS011;61365;52.162;4.500;2022-09-09T12:13:29;7.78;;;3.47;;
72684;SDS011;61365;52.162;4.500;2022-09-09T12:15:56;11.98;;;4.05;;
72684;SDS011;61365;52.162;4.500;2022-09-09T12:18:26;9.02;;;3.63;;
72684;SDS011;61365;52.162;4.500;2022-09-09T12:24:14;7.15;;;2.78;;
72684;SDS011;61365;52.162;4.500;2022-09-09T12:27:07;7.43;;;2.90;;
72684;SDS011;61365;52.162;4.500;2022-09-09T12:30:01;9.60;;;2.45;;
72684;SDS011;61365;52.162;4.500;2022-09-09T12:32:36;8.02;;;2.25;;
72684;SDS011;61365;52.162;4.500;2022-09-09T12:35:04;6.05;;;2.22;;
72684;SDS011;61365;52.162;4.500;2022-09-09T12:38:01;6.65;;;2.50;;
72684;SDS011;61365;52.162;4.500;2022-09-09T12:40:31;8.13;;;2.53;;
72684;SDS011;61365;52.162;4.500;2022-09-09T12:43:16;7.53;;;2.78;;
72684;SDS011;61365;52.162;4.500;2022-09-09T12:45:47;7.05;;;2.67;;
72684;SDS011;61365;52.162;4.500;2022-09-09T12:48:22;8.82;;;3.10;;
72684;SDS011;61365;52.162;4.500;2022-09-09T12:50:58;7.85;;;3.10;;
72684;SDS011;61365;52.162;4.500;2022-09-09T12:53:30;8.98;;;3.15;;
72684;SDS011;61365;52.162;4.500;2022-09-09T12:56:03;7.38;;;2.60;;
72684;SDS011;61365;52.162;4.500;2022-09-09T12:58:36;11.55;;;4.93;;
72684;SDS011;61365;52.162;4.500;2022-09-09T13:01:04;5.75;;;2.45;;
72684;SDS011;61365;52.162;4.500;2022-09-09T13:03:33;10.38;;;2.45;;
72684;SDS011;61365;52.162;4.500;2022-09-09T13:06:12;9.27;;;2.33;;
72684;SDS011;61365;52.162;4.500;2022-09-09T13:08:49;7.15;;;1.90;;
72684;SDS011;61365;52.162;4.500;2022-09-09T13:11:24;8.30;;;2.00;;
72684;SDS011;61365;52.162;4.500;2022-09-09T13:14:15;6.55;;;1.80;;
72684;SDS011;61365;52.162;4.500;2022-09-09T13:16:55;5.87;;;1.80;;
72684;SDS011;61365;52.162;4.500;2022-09-09T13:19:25;6.55;;;2.03;;
72684;SDS011;61365;52.162;4.500;2022-09-09T13:21:57;3.92;;;1.08;;
72684;SDS011;61365;52.162;4.500;2022-09-09T13:27:04;2.90;;;1.15;;
72684;SDS011;61365;52.162;4.500;2022-09-09T13:32:22;3.78;;;1.17;;
72684;SDS011;61365;52.162;4.500;2022-09-09T13:34:53;7.22;;;1.63;;
72684;SDS011;61365;52.162;4.500;2022-09-09T13:37:33;7.72;;;1.60;;
72684;SDS011;61365;52.162;4.500;2022-09-09T13:40:04;3.88;;;1.38;;
72684;SDS011;61365;52.162;4.500;2022-09-09T13:42:33;4.90;;;1.70;;
72684;SDS011;61365;52.162;4.500;2022-09-09T13:45:18;10.13;;;1.58;;
72684;SDS011;61365;52.162;4.500;2022-09-09T13:47:47;6.10;;;2.10;;
72684;SDS011;61365;52.162;4.500;2022-09-09T13:50:25;4.88;;;1.58;;
72684;SDS011;61365;52.162;4.500;2022-09-09T13:52:55;3.40;;;1.48;;
72684;SDS011;61365;52.162;4.500;2022-09-09T13:55:24;8.90;;;1.95;;
72684;SDS011;61365;52.162;4.500;2022-09-09T13:57:57;8.07;;;1.40;;
72684;SDS011;61365;52.162;4.500;2022-09-09T14:00:28;4.75;;;1.38;;
72684;SDS011;61365;52.162;4.500;2022-09-09T14:02:57;4.70;;;1.30;;
72684;SDS011;61365;52.162;4.500;2022-09-09T14:05:23;3.50;;;0.90;;
72684;SDS011;61365;52.162;4.500;2022-09-09T14:07:50;4.32;;;1.15;;
72684;SDS011;61365;52.162;4.500;2022-09-09T14:10:17;7.40;;;1.05;;
72684;SDS011;61365;52.162;4.500;2022-09-09T14:12:43;2.67;;;0.77;;
72684;SDS011;61365;52.162;4.500;2022-09-09T14:15:10;4.25;;;0.68;;
72684;SDS011;61365;52.162;4.500;2022-09-09T14:17:38;3.00;;;0.90;;
72684;SDS011;61365;52.162;4.500;2022-09-09T14:20:04;3.25;;;0.85;;
72684;SDS011;61365;52.162;4.500;2022-09-09T14:22:35;4.28;;;0.75;;
72684;SDS011;61365;52.162;4.500;2022-09-09T14:25:02;4.45;;;0.77;;
72684;SDS011;61365;52.162;4.500;2022-09-09T14:27:30;1.63;;;0.70;;
72684;SDS011;61365;52.162;4.500;2022-09-09T14:29:56;3.47;;;1.02;;
72684;SDS011;61365;52.162;4.500;2022-09-09T14:32:23;2.88;;;1.05;;
72684;SDS011;61365;52.162;4.500;2022-09-09T14:34:50;2.47;;;0.65;;
72684;SDS011;61365;52.162;4.500;2022-09-09T14:37:16;3.08;;;0.80;;
72684;SDS011;61365;52.162;4.500;2022-09-09T14:39:44;7.00;;;0.98;;
72684;SDS011;61365;52.162;4.500;2022-09-09T14:42:13;5.00;;;0.85;;
72684;SDS011;61365;52.162;4.500;2022-09-09T14:44:40;4.50;;;1.20;;
72684;SDS011;61365;52.162;4.500;2022-09-09T14:47:06;5.78;;;1.25;;
72684;SDS011;61365;52.162;4.500;2022-09-09T14:49:34;5.25;;;1.40;;
72684;SDS011;61365;52.162;4.500;2022-09-09T14:52:01;5.03;;;1.38;;
72684;SDS011;61365;52.162;4.500;2022-09-09T14:54:29;8.88;;;1.70;;
72684;SDS011;61365;52.162;4.500;2022-09-09T14:56:55;10.98;;;2.00;;
72684;SDS011;61365;52.162;4.500;2022-09-09T14:59:22;9.45;;;1.48;;
72684;SDS011;61365;52.162;4.500;2022-09-09T15:01:48;8.85;;;1.92;;
72684;SDS011;61365;52.162;4.500;2022-09-09T15:04:15;7.70;;;1.67;;
72684;SDS011;61365;52.162;4.500;2022-09-09T15:06:42;7.85;;;1.52;;
72684;SDS011;61365;52.162;4.500;2022-09-09T15:09:12;17.52;;;2.88;;
72684;SDS011;61365;52.162;4.500;2022-09-09T15:11:39;12.15;;;2.25;;
72684;SDS011;61365;52.162;4.500;2022-09-09T15:14:06;4.78;;;1.25;;
72684;SDS011;61365;52.162;4.500;2022-09-09T15:16:34;2.92;;;1.02;;
72684;SDS011;61365;52.162;4.500;2022-09-09T15:19:02;7.72;;;1.67;;
72684;SDS011;61365;52.162;4.500;2022-09-09T15:21:33;6.97;;;1.40;;
72684;SDS011;61365;52.162;4.500;2022-09-09T15:24:02;5.20;;;2.00;;
72684;SDS011;61365;52.162;4.500;2022-09-09T15:26:30;5.88;;;1.63;;
72684;SDS011;61365;52.162;4.500;2022-09-09T15:28:56;10.68;;;1.85;;
72684;SDS011;61365;52.162;4.500;2022-09-09T15:31:25;11.05;;;2.42;;
72684;SDS011;61365;52.162;4.500;2022-09-09T15:33:56;6.53;;;1.83;;
72684;SDS011;61365;52.162;4.500;2022-09-09T15:36:33;9.43;;;1.83;;
72684;SDS011;61365;52.162;4.500;2022-09-09T15:39:08;7.68;;;2.50;;
72684;SDS011;61365;52.162;4.500;2022-09-09T15:41:38;8.45;;;2.20;;
72684;SDS011;61365;52.162;4.500;2022-09-09T15:44:05;8.13;;;1.98;;
72684;SDS011;61365;52.162;4.500;2022-09-09T15:46:35;8.00;;;1.90;;
72684;SDS011;61365;52.162;4.500;2022-09-09T15:49:15;8.82;;;2.05;;
72684;SDS011;61365;52.162;4.500;2022-09-09T15:51:57;4.65;;;1.63;;
72684;SDS011;61365;52.162;4.500;2022-09-09T15:54:31;7.78;;;1.92;;
72684;SDS011;61365;52.162;4.500;2022-09-09T15:57:01;5.28;;;1.60;;
72684;SDS011;61365;52.162;4.500;2022-09-09T15:59:30;4.93;;;1.65;;
72684;SDS011;61365;52.162;4.500;2022-09-09T16:01:59;6.93;;;2.30;;
72684;SDS011;61365;52.162;4.500;2022-09-09T16:04:28;4.63;;;1.55;;
72684;SDS011;61365;52.162;4.500;2022-09-09T16:06:56;5.75;;;1.70;;
72684;SDS011;61365;52.162;4.500;2022-09-09T16:09:29;5.05;;;1.45;;
72684;SDS011;61365;52.162;4.500;2022-09-09T16:11:57;6.95;;;1.92;;
72684;SDS011;61365;52.162;4.500;2022-09-09T16:14:32;5.13;;;1.70;;
72684;SDS011;61365;52.162;4.500;2022-09-09T16:17:02;10.10;;;3.88;;
72684;SDS011;61365;52.162;4.500;2022-09-09T16:19:31;6.45;;;1.40;;
72684;SDS011;61365;52.162;4.500;2022-09-09T16:21:58;7.28;;;1.92;;
72684;SDS011;61365;52.162;4.500;2022-09-09T16:24:24;7.88;;;2.00;;
72684;SDS011;61365;52.162;4.500;2022-09-09T16:26:52;8.50;;;2.10;;
72684;SDS011;61365;52.162;4.500;2022-09-09T16:29:20;7.10;;;1.98;;
72684;SDS011;61365;52.162;4.500;2022-09-09T16:31:48;12.02;;;2.17;;
72684;SDS011;61365;52.162;4.500;2022-09-09T16:34:16;7.75;;;1.80;;
72684;SDS011;61365;52.162;4.500;2022-09-09T16:36:44;8.73;;;2.08;;
72684;SDS011;61365;52.162;4.500;2022-09-09T16:39:15;7.47;;;2.72;;
72684;SDS011;61365;52.162;4.500;2022-09-09T16:41:45;13.23;;;3.70;;
72684;SDS011;61365;52.162;4.500;2022-09-09T16:44:14;9.73;;;2.90;;
72684;SDS011;61365;52.162;4.500;2022-09-09T16:46:44;7.70;;;2.60;;
72684;SDS011;61365;52.162;4.500;2022-09-09T16:49:14;6.85;;;2.22;;
72684;SDS011;61365;52.162;4.500;2022-09-09T16:51:45;10.02;;;3.08;;
72684;SDS011;61365;52.162;4.500;2022-09-09T16:54:15;8.60;;;3.50;;
72684;SDS011;61365;52.162;4.500;2022-09-09T16:56:45;9.55;;;2.90;;
72684;SDS011;61365;52.162;4.500;2022-09-09T16:59:14;10.25;;;3.63;;
72684;SDS011;61365;52.162;4.500;2022-09-09T17:01:45;9.57;;;3.58;;
72684;SDS011;61365;52.162;4.500;2022-09-09T17:04:18;15.27;;;4.22;;
72684;SDS011;61365;52.162;4.500;2022-09-09T17:06:50;11.27;;;3.80;;
72684;SDS011;61365;52.162;4.500;2022-09-09T17:09:19;9.63;;;3.92;;
72684;SDS011;61365;52.162;4.500;2022-09-09T17:11:48;11.07;;;4.55;;
72684;SDS011;61365;52.162;4.500;2022-09-09T17:14:18;13.25;;;4.38;;
72684;SDS011;61365;52.162;4.500;2022-09-09T17:16:47;11.77;;;4.88;;
72684;SDS011;61365;52.162;4.500;2022-09-09T17:19:13;11.93;;;5.22;;
72684;SDS011;61365;52.162;4.500;2022-09-09T17:21:40;14.70;;;5.25;;
72684;SDS011;61365;52.162;4.500;2022-09-09T17:24:07;18.38;;;7.38;;
72684;SDS011;61365;52.162;4.500;2022-09-09T17:26:33;24.85;;;9.73;;